Station History

Weather Underground - logo

Station Historical Data
Daily Summary for January 14, 2018 Units:  English    Metric   Both
« Previous Day
Next Day »
Daily Weekly Monthly Yearly Custom
  High: Low: Average:
Temperature: 56.6 °F 45.8 °F 49.4 °F
Dew Point: 51.4 °F 44.7 °F 47.6 °F
Humidity: 98 % 81 % 94 %
Wind Speed: 4.0 mph 0.0 mph 0.5 mph
Wind Gust: 4.0 mph - -
Wind:- - WSW
Pressure: 30.25 in 30.13 in -
Precipitation: 0.00 in    
Historical Graphs
 
 
Tabular Data for January 14, 2018
Time Temperature Dew Point Pressure Wind Wind Speed Wind Gust Humidity Rainfall Rate (Hourly)
00:04 48.6 °F 47.8 °F 30.24 in Calm     97 % 0.00 in
00:10 48.7 °F 47.9 °F 30.24 in Calm     97 % 0.00 in
00:16 48.7 °F 47.9 °F 30.24 in Calm     97 % 0.00 in
00:45 48.5 °F 47.7 °F 30.23 in Calm     97 % 0.00 in
00:59 48.3 °F 47.5 °F 30.22 in Calm     97 % 0.00 in
01:05 48.3 °F 47.5 °F 30.22 in Calm     97 % 0.00 in
01:11 48.3 °F 47.5 °F 30.22 in WNW 1.2 mph 1.2 mph 97 % 0.00 in
01:17 48.3 °F 47.5 °F 30.22 in Calm     97 % 0.00 in
01:29 48.3 °F 47.5 °F 30.22 in Calm     97 % 0.00 in
01:35 48.3 °F 47.5 °F 30.22 in Calm     97 % 0.00 in
01:50 48.3 °F 47.5 °F 30.22 in Calm     97 % 0.00 in
02:01 48.3 °F 47.5 °F 30.22 in Calm     97 % 0.00 in
02:09 48.3 °F 47.5 °F 30.23 in Calm     97 % 0.00 in
02:21 48.2 °F 47.4 °F 30.22 in Calm     97 % 0.00 in
02:31 48.3 °F 47.5 °F 30.23 in Calm     97 % 0.00 in
02:40 48.1 °F 47.3 °F 30.23 in Calm     97 % 0.00 in
02:45 48.1 °F 47.3 °F 30.23 in Calm     97 % 0.00 in
02:59 48.1 °F 47.3 °F 30.24 in Calm     97 % 0.00 in
03:06 48.1 °F 47.3 °F 30.24 in Calm     97 % 0.00 in
03:23 48.1 °F 47.3 °F 30.24 in Calm     97 % 0.00 in
03:37 48.1 °F 47.3 °F 30.24 in Calm     97 % 0.00 in
03:44 48.0 °F 47.2 °F 30.24 in Calm     97 % 0.00 in
03:55 48.0 °F 47.2 °F 30.24 in Calm     97 % 0.00 in
04:07 48.1 °F 47.3 °F 30.23 in Calm     97 % 0.00 in
04:12 48.1 °F 47.3 °F 30.23 in Calm     97 % 0.00 in
04:23 48.0 °F 47.2 °F 30.23 in Calm     97 % 0.00 in
04:30 48.0 °F 47.2 °F 30.23 in Calm     97 % 0.00 in
04:37 48.0 °F 47.2 °F 30.22 in Calm     97 % 0.00 in
04:43 47.9 °F 47.1 °F 30.21 in Calm     97 % 0.00 in
04:53 47.9 °F 47.1 °F 30.21 in Calm     97 % 0.00 in
04:59 47.8 °F 47.0 °F 30.20 in Calm     97 % 0.00 in
05:07 47.7 °F 46.9 °F 30.20 in SE 1.2 mph 1.2 mph 97 % 0.00 in
05:13 47.7 °F 46.9 °F 30.20 in ESE 1.2 mph 1.2 mph 97 % 0.00 in
05:22 47.5 °F 46.7 °F 30.20 in ESE 1.2 mph   97 % 0.00 in
05:28 47.5 °F 46.7 °F 30.20 in Calm     97 % 0.00 in
05:36 47.3 °F 46.5 °F 30.19 in ESE 1.2 mph 1.2 mph 97 % 0.00 in
05:41 47.3 °F 46.5 °F 30.19 in ESE 1.2 mph 1.2 mph 97 % 0.00 in
06:04 47.1 °F 46.3 °F 30.20 in ESE 1.2 mph 1.2 mph 97 % 0.00 in
06:10 47.1 °F 46.3 °F 30.20 in ESE 1.2 mph   97 % 0.00 in
06:19 47.1 °F 46.3 °F 30.21 in ESE 1.2 mph   97 % 0.00 in
06:27 47.1 °F 46.3 °F 30.20 in ESE 1.2 mph   97 % 0.00 in
06:33 47.1 °F 46.3 °F 30.20 in Calm     97 % 0.00 in
06:39 47.1 °F 46.3 °F 30.20 in Calm     97 % 0.00 in
06:47 47.1 °F 46.3 °F 30.21 in Calm     97 % 0.00 in
07:02 47.0 °F 46.2 °F 30.21 in Calm     97 % 0.00 in
07:09 47.0 °F 46.2 °F 30.21 in Calm     97 % 0.00 in
07:17 47.1 °F 46.3 °F 30.21 in Calm     97 % 0.00 in
07:24 47.0 °F 46.2 °F 30.22 in Calm     97 % 0.00 in
07:30 47.0 °F 46.2 °F 30.22 in Calm     97 % 0.00 in
07:47 47.1 °F 46.3 °F 30.22 in Calm     97 % 0.00 in
07:59 47.1 °F 46.3 °F 30.22 in Calm     97 % 0.00 in
08:04 47.1 °F 46.3 °F 30.22 in Calm     97 % 0.00 in
08:15 47.2 °F 46.4 °F 30.23 in Calm     97 % 0.00 in
08:25 47.2 °F 46.4 °F 30.23 in Calm     97 % 0.00 in
08:42 47.2 °F 46.4 °F 30.23 in ESE 1.2 mph 1.2 mph 97 % 0.00 in
08:54 47.3 °F 46.5 °F 30.23 in Calm     97 % 0.00 in
09:02 47.3 °F 46.5 °F 30.24 in Calm     97 % 0.00 in
09:09 47.6 °F 46.8 °F 30.23 in Calm     97 % 0.00 in
09:19 47.9 °F 47.4 °F 30.23 in Calm     98 % 0.00 in
09:31 47.8 °F 47.0 °F 30.24 in NW 1.2 mph 1.2 mph 97 % 0.00 in
09:38 47.9 °F 47.1 °F 30.24 in Calm     97 % 0.00 in
09:55 48.1 °F 47.3 °F 30.24 in Calm     97 % 0.00 in
10:04 48.2 °F 47.4 °F 30.24 in NW 1.2 mph 1.2 mph 97 % 0.00 in
10:10 48.2 °F 47.4 °F 30.24 in Calm     97 % 0.00 in
10:31 48.7 °F 47.9 °F 30.24 in NW 3.5 mph 3.5 mph 97 % 0.00 in
10:41 49.0 °F 47.9 °F 30.24 in Calm     96 % 0.00 in
10:47 49.1 °F 48.0 °F 30.24 in NW 3.5 mph 3.5 mph 96 % 0.00 in
10:53 49.1 °F 48.0 °F 30.24 in NW 2.3 mph 2.3 mph 96 % 0.00 in
11:08 49.4 °F 48.0 °F 30.25 in North 3.5 mph 3.5 mph 95 % 0.00 in
11:13 49.3 °F 47.6 °F 30.25 in NNW 2.3 mph 2.3 mph 94 % 0.00 in
11:27 49.7 °F 48.0 °F 30.24 in NNW 3.5 mph 3.5 mph 94 % 0.00 in
11:38 50.0 °F 48.1 °F 30.24 in NNW 4.0 mph 4.0 mph 93 % 0.00 in
11:47 50.1 °F 48.2 °F 30.23 in NNW 3.0 mph 3.0 mph 93 % 0.00 in
11:54 50.1 °F 48.2 °F 30.23 in WNW 1.2 mph 1.2 mph 93 % 0.00 in
12:02 50.4 °F 48.5 °F 30.23 in WSW 2.3 mph 2.3 mph 93 % 0.00 in
12:10 50.7 °F 48.7 °F 30.22 in NW 1.2 mph 1.2 mph 93 % 0.00 in
12:19 51.2 °F 49.0 °F 30.21 in SE 1.0 mph   92 % 0.00 in
12:25 51.7 °F 49.2 °F 30.21 in SE 3.5 mph 3.5 mph 91 % 0.00 in
12:32 51.8 °F 49.0 °F 30.21 in Calm     90 % 0.00 in
12:39 52.1 °F 49.3 °F 30.20 in Calm     90 % 0.00 in
12:47 52.4 °F 49.6 °F 30.20 in SSE 1.2 mph 1.2 mph 90 % 0.00 in
13:05 53.9 °F 50.4 °F 30.18 in SE 1.2 mph   88 % 0.00 in
13:11 54.4 °F 50.3 °F 30.18 in NW 1.2 mph 1.2 mph 86 % 0.00 in
13:18 54.5 °F 50.1 °F 30.18 in West 2.3 mph 2.3 mph 85 % 0.00 in
13:29 55.2 °F 50.4 °F 30.17 in ENE 1.2 mph 1.2 mph 84 % 0.00 in
13:44 56.5 °F 51.4 °F 30.17 in NW 1.2 mph   83 % 0.00 in
13:57 56.4 °F 51.0 °F 30.17 in NW 1.2 mph 1.2 mph 82 % 0.00 in
14:21 56.5 °F 50.7 °F 30.17 in NNW 1.2 mph 1.2 mph 81 % 0.00 in
14:27 56.5 °F 50.7 °F 30.17 in NW 1.2 mph   81 % 0.00 in
14:37 56.6 °F 50.8 °F 30.18 in NW 1.0 mph   81 % 0.00 in
14:44 56.4 °F 50.6 °F 30.18 in NW 2.3 mph 2.3 mph 81 % 0.00 in
14:51 56.2 °F 50.4 °F 30.18 in WNW 2.3 mph 2.3 mph 81 % 0.00 in
14:58 56.2 °F 50.4 °F 30.18 in NW 2.3 mph 2.3 mph 81 % 0.00 in
15:07 56.4 °F 51.0 °F 30.17 in NW 1.2 mph 1.2 mph 82 % 0.00 in
15:12 56.3 °F 50.5 °F 30.17 in WNW 2.0 mph 2.0 mph 81 % 0.00 in
15:30 56.0 °F 50.6 °F 30.17 in WNW 1.2 mph 1.2 mph 82 % 0.00 in
15:44 55.9 °F 50.8 °F 30.16 in Calm     83 % 0.00 in
15:50 56.1 °F 50.7 °F 30.16 in NNW 1.2 mph   82 % 0.00 in
15:56 56.3 °F 50.9 °F 30.16 in NW 1.2 mph 1.2 mph 82 % 0.00 in
16:02 56.4 °F 50.6 °F 30.16 in Calm     81 % 0.00 in
16:09 56.5 °F 51.1 °F 30.16 in NW 1.0 mph 1.0 mph 82 % 0.00 in
16:17 56.6 °F 51.2 °F 30.16 in Calm     82 % 0.00 in
16:24 56.4 °F 51.0 °F 30.16 in Calm     82 % 0.00 in
16:37 55.7 °F 50.6 °F 30.16 in NW 1.2 mph   83 % 0.00 in
16:57 53.9 °F 49.8 °F 30.14 in Calm     86 % 0.00 in
17:02 53.5 °F 49.7 °F 30.14 in Calm     87 % 0.00 in
17:10 52.8 °F 49.3 °F 30.14 in Calm     88 % 0.00 in
17:21 51.7 °F 48.6 °F 30.14 in Calm     89 % 0.00 in
17:27 51.2 °F 48.4 °F 30.14 in Calm     90 % 0.00 in
17:43 50.4 °F 48.2 °F 30.13 in Calm     92 % 0.00 in
17:52 50.0 °F 47.5 °F 30.14 in Calm     91 % 0.00 in
17:57 49.8 °F 47.6 °F 30.14 in Calm     92 % 0.00 in
18:03 49.7 °F 47.8 °F 30.14 in Calm     93 % 0.00 in
18:08 49.9 °F 48.2 °F 30.14 in Calm     94 % 0.00 in
18:14 49.7 °F 48.0 °F 30.13 in Calm     94 % 0.00 in
18:19 49.4 °F 47.5 °F 30.14 in Calm     93 % 0.00 in
18:25 49.1 °F 47.4 °F 30.14 in Calm     94 % 0.00 in
18:31 49.0 °F 47.3 °F 30.15 in Calm     94 % 0.00 in
18:37 48.8 °F 47.4 °F 30.15 in Calm     95 % 0.00 in
18:43 48.7 °F 47.3 °F 30.15 in Calm     95 % 0.00 in
19:01 48.0 °F 46.6 °F 30.16 in Calm     95 % 0.00 in
19:09 47.6 °F 46.2 °F 30.17 in Calm     95 % 0.00 in
19:15 47.5 °F 46.1 °F 30.17 in Calm     95 % 0.00 in
19:23 47.4 °F 46.0 °F 30.17 in Calm     95 % 0.00 in
19:30 47.6 °F 46.5 °F 30.18 in Calm     96 % 0.00 in
19:40 47.2 °F 46.1 °F 30.18 in Calm     96 % 0.00 in
19:46 47.0 °F 45.9 °F 30.18 in Calm     96 % 0.00 in
19:58 46.8 °F 45.7 °F 30.17 in Calm     96 % 0.00 in
20:04 46.9 °F 45.8 °F 30.17 in Calm     96 % 0.00 in
20:11 46.9 °F 45.8 °F 30.17 in Calm     96 % 0.00 in
20:26 46.5 °F 45.4 °F 30.17 in Calm     96 % 0.00 in
20:39 46.7 °F 45.6 °F 30.18 in Calm     96 % 0.00 in
20:44 46.5 °F 45.4 °F 30.18 in Calm     96 % 0.00 in
20:50 45.9 °F 44.8 °F 30.18 in Calm     96 % 0.00 in
21:04 45.8 °F 44.7 °F 30.17 in Calm     96 % 0.00 in
21:12 45.8 °F 44.7 °F 30.18 in Calm     96 % 0.00 in
21:17 45.8 °F 44.7 °F 30.17 in Calm     96 % 0.00 in
21:22 46.1 °F 45.0 °F 30.18 in Calm     96 % 0.00 in
21:27 46.4 °F 45.6 °F 30.17 in SE 1.2 mph   97 % 0.00 in
21:41 46.6 °F 45.5 °F 30.16 in Calm     96 % 0.00 in
21:49 46.9 °F 46.1 °F 30.17 in Calm     97 % 0.00 in
21:54 47.3 °F 46.5 °F 30.16 in Calm     97 % 0.00 in
22:03 47.4 °F 46.6 °F 30.16 in Calm     97 % 0.00 in
22:18 47.2 °F 46.1 °F 30.16 in Calm     96 % 0.00 in
22:25 47.2 °F 46.1 °F 30.16 in Calm     96 % 0.00 in
22:39 47.1 °F 46.0 °F 30.15 in Calm     96 % 0.00 in
22:49 47.1 °F 46.3 °F 30.15 in Calm     97 % 0.00 in
22:56 47.1 °F 46.3 °F 30.16 in Calm     97 % 0.00 in
23:06 47.2 °F 46.4 °F 30.15 in Calm     97 % 0.00 in
23:14 47.1 °F 46.3 °F 30.14 in ESE 1.2 mph   97 % 0.00 in
23:24 47.1 °F 46.3 °F 30.16 in Calm     97 % 0.00 in
23:30 47.0 °F 46.2 °F 30.17 in WNW 1.2 mph 1.2 mph 97 % 0.00 in
23:38 46.8 °F 46.0 °F 30.17 in Calm     97 % 0.00 in
23:56 46.8 °F 46.0 °F 30.16 in Calm     97 % 0.00 in
Park Place, Exeter, Tulare County, California, USA
Compliments of Weather Underground - 2 mb